Wetterdaten: Woche 09.03.15 - 15.03.15 (KW11)
Datum Zeit Temp. A. Feuchte A. Luftdruck Regen Wind Richtung Sonnenschein ET UV Solar Taupunkt Windchill Windben
09.03.2015 00:00 0,5 C 88 % 1025,7 hPa 0,0 l/m 0,2 km/h (0 Bft) N 0,00 h 0,000 mm 0,0 UV-I 0 W/m -1,2 C 0,5 C 0,7 km/h (0 Bft)
09.03.2015 01:00 -0,2 C 89 % 1025,8 hPa 0,0 l/m 0,0 km/h (0 Bft) N 0,00 h 0,000 mm 0,0 UV-I 0 W/m -1,8 C -0,2 C 0,3 km/h (0 Bft)
09.03.2015 02:00 -0,5 C 92 % 1025,6 hPa 0,0 l/m 0,6 km/h (0 Bft) N 0,00 h 0,000 mm 0,0 UV-I 0 W/m -1,7 C -0,5 C 1,3 km/h (1 Bft)
09.03.2015 03:00 -0,9 C 92 % 1025,3 hPa 0,0 l/m 0,2 km/h (0 Bft) N 0,00 h 0,000 mm 0,0 UV-I 0 W/m -2,0 C -0,9 C 0,9 km/h (0 Bft)
09.03.2015 04:00 -1,0 C 93 % 1025,2 hPa 0,0 l/m 0,2 km/h (0 Bft) N 0,00 h 0,000 mm 0,0 UV-I 0 W/m -2,0 C -1,0 C 0,7 km/h (0 Bft)
09.03.2015 05:00 -0,8 C 93 % 1025,8 hPa 0,0 l/m 0,3 km/h (0 Bft) N 0,00 h 0,000 mm 0,0 UV-I 0 W/m -1,8 C -0,8 C 0,7 km/h (0 Bft)
09.03.2015 06:00 -1,0 C 93 % 1026,0 hPa 0,0 l/m 0,1 km/h (0 Bft) N 0,00 h 0,000 mm 0,0 UV-I 8 W/m -2,0 C -1,0 C 0,1 km/h (0 Bft)
09.03.2015 07:00 -1,2 C 93 % 1026,2 hPa 0,0 l/m 0,3 km/h (0 Bft) N 0,10 h 0,000 mm 0,0 UV-I 30 W/m -2,1 C -1,2 C 0,8 km/h (0 Bft)
09.03.2015 08:00 1,1 C 90 % 1026,8 hPa 0,0 l/m 0,2 km/h (0 Bft) N 1,00 h 0,000 mm 0,7 UV-I 247 W/m -0,4 C 1,1 C 0,7 km/h (0 Bft)
09.03.2015 09:00 6,0 C 74 % 1027,2 hPa 0,0 l/m 0,7 km/h (0 Bft) NW 1,00 h 0,076 mm 1,2 UV-I 398 W/m 1,8 C 6,0 C 2,4 km/h (1 Bft)
09.03.2015 10:00 9,1 C 60 % 1027,1 hPa 0,0 l/m 1,1 km/h (0 Bft) NW 1,00 h 0,152 mm 1,8 UV-I 522 W/m 1,8 C 9,1 C 2,9 km/h (1 Bft)
09.03.2015 11:00 12,2 C 47 % 1027,0 hPa 0,0 l/m 4,6 km/h (1 Bft) N 1,00 h 0,229 mm 2,2 UV-I 591 W/m 1,3 C 12,0 C 8,3 km/h (2 Bft)
09.03.2015 12:00 13,7 C 43 % 1026,7 hPa 0,0 l/m 4,4 km/h (1 Bft) N 1,00 h 0,305 mm 2,4 UV-I 609 W/m 1,5 C 13,4 C 7,7 km/h (2 Bft)
09.03.2015 13:00 14,6 C 42 % 1026,1 hPa 0,0 l/m 2,8 km/h (1 Bft) N 1,00 h 0,330 mm 2,2 UV-I 579 W/m 1,7 C 14,6 C 5,7 km/h (2 Bft)
09.03.2015 14:00 15,1 C 38 % 1025,4 hPa 0,0 l/m 2,1 km/h (1 Bft) N 1,00 h 0,330 mm 1,6 UV-I 451 W/m 0,7 C 15,0 C 4,4 km/h (1 Bft)
09.03.2015 15:00 15,2 C 33 % 1025,1 hPa 0,0 l/m 2,1 km/h (1 Bft) O-SO 1,00 h 0,254 mm 1,0 UV-I 354 W/m -1,2 C 15,2 C 4,8 km/h (1 Bft)
09.03.2015 16:00 14,7 C 35 % 1025,2 hPa 0,0 l/m 1,7 km/h (1 Bft) O-SO 1,00 h 0,203 mm 0,6 UV-I 181 W/m -0,8 C 14,7 C 4,3 km/h (1 Bft)
09.03.2015 17:00 13,3 C 42 % 1025,4 hPa 0,0 l/m 1,6 km/h (1 Bft) O-SO 0,28 h 0,127 mm 0,0 UV-I 40 W/m 0,7 C 13,3 C 3,6 km/h (1 Bft)
09.03.2015 18:00 11,4 C 50 % 1026,0 hPa 0,0 l/m 0,3 km/h (0 Bft) O 0,00 h 0,051 mm 0,0 UV-I 5 W/m 1,5 C 11,4 C 1,6 km/h (1 Bft)
09.03.2015 19:00 9,1 C 56 % 1026,5 hPa 0,0 l/m 0,8 km/h (0 Bft) O 0,00 h 0,000 mm 0,0 UV-I 0 W/m 0,8 C 9,1 C 2,6 km/h (1 Bft)
09.03.2015 20:00 7,0 C 63 % 1026,6 hPa 0,0 l/m 0,2 km/h (0 Bft) N 0,00 h 0,025 mm 0,0 UV-I 0 W/m 0,4 C 7,0 C 1,2 km/h (1 Bft)
09.03.2015 21:00 4,8 C 70 % 1026,7 hPa 0,0 l/m 0,1 km/h (0 Bft) N 0,00 h 0,026 mm 0,0 UV-I 0 W/m -0,1 C 4,8 C 1,0 km/h (0 Bft)
09.03.2015 22:00 3,2 C 76 % 1027,0 hPa 0,0 l/m 1,5 km/h (1 Bft) O-NO 0,00 h 0,025 mm 0,0 UV-I 0 W/m -0,7 C 3,2 C 3,0 km/h (1 Bft)
09.03.2015 23:00 1,8 C 80 % 1027,1 hPa 0,0 l/m 0,0 km/h (0 Bft) N 0,00 h 0,025 mm 0,0 UV-I 0 W/m -1,2 C 1,8 C 0,1 km/h (0 Bft)
10.03.2015 00:00 0,6 C 84 % 1026,9 hPa 0,0 l/m 0,1 km/h (0 Bft) N 0,00 h 0,000 mm 0,0 UV-I 0 W/m -1,7 C 0,6 C 0,3 km/h (0 Bft)
10.03.2015 01:00 -0,4 C 88 % 1026,7 hPa 0,0 l/m 0,0 km/h (0 Bft) N 0,00 h 0,000 mm 0,0 UV-I 0 W/m -2,2 C -0,4 C 0,2 km/h (0 Bft)
10.03.2015 02:00 -1,2 C 88 % 1026,3 hPa 0,0 l/m 0,0 km/h (0 Bft) N 0,00 h 0,000 mm 0,0 UV-I 0 W/m -2,8 C -1,2 C 0,1 km/h (0 Bft)
10.03.2015 03:00 -1,8 C 90 % 1025,9 hPa 0,0 l/m 0,0 km/h (0 Bft) N 0,00 h 0,000 mm 0,0 UV-I 0 W/m -3,2 C -1,8 C 0,0 km/h (0 Bft)
10.03.2015 04:00 -2,3 C 91 % 1025,9 hPa 0,0 l/m 0,1 km/h (0 Bft) N 0,00 h 0,000 mm 0,0 UV-I 0 W/m -3,6 C -2,3 C 0,2 km/h (0 Bft)
10.03.2015 05:00 -2,5 C 92 % 1026,4 hPa 0,0 l/m 0,8 km/h (0 Bft) N 0,00 h 0,000 mm 0,0 UV-I 0 W/m -3,6 C -2,5 C 1,7 km/h (1 Bft)
10.03.2015 06:00 -2,7 C 92 % 1027,0 hPa 0,0 l/m 0,1 km/h (0 Bft) N 0,00 h 0,000 mm 0,0 UV-I 10 W/m -3,8 C -2,7 C 0,7 km/h (0 Bft)
10.03.2015 07:00 -2,2 C 94 % 1027,0 hPa 0,0 l/m 0,0 km/h (0 Bft) N 0,42 h 0,000 mm 0,0 UV-I 62 W/m -3,1 C -2,2 C 0,2 km/h (0 Bft)
10.03.2015 08:00 1,4 C 85 % 1027,0 hPa 0,0 l/m 0,0 km/h (0 Bft) N 1,00 h 0,025 mm 0,7 UV-I 272 W/m -0,8 C 1,4 C 0,2 km/h (0 Bft)
10.03.2015 09:00 5,5 C 69 % 1026,9 hPa 0,0 l/m 0,1 km/h (0 Bft) N 1,00 h 0,102 mm 1,2 UV-I 416 W/m 0,1 C 5,5 C 0,7 km/h (0 Bft)
10.03.2015 10:00 8,9 C 55 % 1026,4 hPa 0,0 l/m 1,4 km/h (1 Bft) W 1,00 h 0,178 mm 1,8 UV-I 524 W/m 0,4 C 8,9 C 3,4 km/h (1 Bft)
10.03.2015 11:00 11,1 C 49 % 1026,0 hPa 0,0 l/m 2,0 km/h (1 Bft) W-NW 1,00 h 0,254 mm 2,3 UV-I 593 W/m 0,7 C 11,1 C 4,1 km/h (1 Bft)
10.03.2015 12:00 13,0 C 46 % 1025,4 hPa 0,0 l/m 2,9 km/h (1 Bft) W-NW 1,00 h 0,305 mm 2,4 UV-I 608 W/m 1,5 C 12,9 C 5,8 km/h (2 Bft)
10.03.2015 13:00 14,4 C 41 % 1024,7 hPa 0,0 l/m 3,0 km/h (1 Bft) NW 1,00 h 0,330 mm 2,2 UV-I 593 W/m 1,1 C 14,3 C 6,3 km/h (2 Bft)
10.03.2015 14:00 14,1 C 40 % 1024,5 hPa 0,0 l/m 3,1 km/h (1 Bft) W 1,00 h 0,330 mm 1,3 UV-I 318 W/m 0,8 C 14,1 C 5,8 km/h (2 Bft)
10.03.2015 15:00 14,2 C 43 % 1024,2 hPa 0,0 l/m 5,2 km/h (1 Bft) W-NW 1,00 h 0,203 mm 0,9 UV-I 285 W/m 1,7 C 14,0 C 8,7 km/h (2 Bft)
10.03.2015 16:00 13,0 C 46 % 1024,1 hPa 0,0 l/m 8,9 km/h (2 Bft) W-SW 1,00 h 0,178 mm 0,5 UV-I 109 W/m 1,7 C 11,4 C 13,7 km/h (3 Bft)
10.03.2015 17:00 11,9 C 56 % 1024,2 hPa 0,0 l/m 6,2 km/h (2 Bft) NW 0,12 h 0,127 mm 0,0 UV-I 27 W/m 3,3 C 11,2 C 10,1 km/h (2 Bft)
10.03.2015 18:00 11,0 C 59 % 1024,6 hPa 0,0 l/m 2,2 km/h (1 Bft) NW 0,00 h 0,051 mm 0,0 UV-I 6 W/m 3,3 C 11,0 C 4,5 km/h (1 Bft)
10.03.2015 19:00 9,9 C 70 % 1025,1 hPa 0,0 l/m 6,2 km/h (2 Bft) N 0,00 h 0,025 mm 0,0 UV-I 0 W/m 4,6 C 8,8 C 10,5 km/h (2 Bft)
10.03.2015 20:00 8,6 C 82 % 1025,5 hPa 0,0 l/m 8,7 km/h (2 Bft) N 0,00 h 0,025 mm 0,0 UV-I 0 W/m 5,8 C 6,9 C 14,0 km/h (3 Bft)
10.03.2015 21:00 7,5 C 89 % 1025,7 hPa 0,0 l/m 4,1 km/h (1 Bft) N 0,00 h 0,026 mm 0,0 UV-I 0 W/m 5,8 C 7,3 C 6,9 km/h (2 Bft)
10.03.2015 22:00 7,2 C 91 % 1025,8 hPa 0,2 l/m 4,7 km/h (1 Bft) N-NW 0,00 h 0,000 mm 0,0 UV-I 0 W/m 5,8 C 6,4 C 8,3 km/h (2 Bft)
10.03.2015 23:00 6,1 C 89 % 1025,8 hPa 0,0 l/m 5,7 km/h (2 Bft) N 0,00 h 0,000 mm 0,0 UV-I 0 W/m 4,4 C 4,9 C 10,2 km/h (2 Bft)
11.03.2015 00:00 5,6 C 90 % 1025,7 hPa 0,0 l/m 2,9 km/h (1 Bft) N 0,00 h 0,000 mm 0,0 UV-I 0 W/m 4,1 C 5,5 C 5,6 km/h (2 Bft)
11.03.2015 01:00 5,5 C 90 % 1025,5 hPa 0,0 l/m 2,3 km/h (1 Bft) N-NW 0,00 h 0,000 mm 0,0 UV-I 0 W/m 4,0 C 5,5 C 4,5 km/h (1 Bft)
11.03.2015 02:00 5,0 C 91 % 1025,3 hPa 0,8 l/m 9,3 km/h (2 Bft) N 0,00 h 0,000 mm 0,0 UV-I 0 W/m 3,6 C 2,2 C 15,2 km/h (3 Bft)
11.03.2015 03:00 3,6 C 87 % 1025,3 hPa 0,0 l/m 12,3 km/h (2 Bft) N 0,00 h 0,000 mm 0,0 UV-I 0 W/m 1,7 C -0,8 C 19,1 km/h (3 Bft)
11.03.2015 04:00 2,8 C 85 % 1025,4 hPa 0,0 l/m 7,9 km/h (2 Bft) N 0,00 h 0,025 mm 0,0 UV-I 0 W/m 0,6 C 0,9 C 13,7 km/h (3 Bft)
11.03.2015 05:00 2,1 C 85 % 1025,6 hPa 0,0 l/m 2,6 km/h (1 Bft) N-NW 0,00 h 0,025 mm 0,0 UV-I 0 W/m -0,2 C 2,0 C 6,1 km/h (2 Bft)
11.03.2015 06:00 1,0 C 87 % 1026,0 hPa 0,0 l/m 7,0 km/h (2 Bft) N 0,00 h 0,000 mm 0,0 UV-I 9 W/m -0,9 C -0,3 C 11,6 km/h (2 Bft)
11.03.2015 07:00 1,1 C 85 % 1026,4 hPa 0,0 l/m 8,7 km/h (2 Bft) N 0,32 h 0,001 mm 0,0 UV-I 46 W/m -1,1 C -1,2 C 14,1 km/h (3 Bft)
11.03.2015 08:00 2,1 C 80 % 1027,0 hPa 0,0 l/m 11,2 km/h (2 Bft) N 1,00 h 0,025 mm 0,6 UV-I 119 W/m -1,0 C -1,8 C 17,3 km/h (3 Bft)
11.03.2015 09:00 2,1 C 77 % 1027,5 hPa 0,0 l/m 10,4 km/h (2 Bft) N 1,00 h 0,051 mm 0,7 UV-I 144 W/m -1,5 C -1,4 C 16,5 km/h (3 Bft)
11.03.2015 10:00 2,7 C 74 % 1027,8 hPa 0,0 l/m 11,0 km/h (2 Bft) N 1,00 h 0,076 mm 1,3 UV-I 250 W/m -1,4 C -1,0 C 17,1 km/h (3 Bft)
11.03.2015 11:00 3,1 C 72 % 1027,9 hPa 0,0 l/m 10,6 km/h (2 Bft) N 1,00 h 0,127 mm 1,4 UV-I 261 W/m -1,5 C -0,4 C 16,2 km/h (3 Bft)
11.03.2015 12:00 4,8 C 63 % 1027,6 hPa 0,0 l/m 9,7 km/h (2 Bft) NW 1,00 h 0,127 mm 2,2 UV-I 508 W/m -1,6 C 2,0 C 15,1 km/h (3 Bft)
11.03.2015 13:00 5,4 C 60 % 1027,4 hPa 0,0 l/m 11,1 km/h (2 Bft) NW 1,00 h 0,229 mm 1,9 UV-I 424 W/m -1,8 C 2,0 C 16,7 km/h (3 Bft)
11.03.2015 14:00 5,9 C 55 % 1027,2 hPa 0,0 l/m 9,2 km/h (2 Bft) N 1,00 h 0,229 mm 1,5 UV-I 385 W/m -2,4 C 3,5 C 15,0 km/h (3 Bft)
11.03.2015 15:00 6,2 C 54 % 1027,1 hPa 0,0 l/m 8,7 km/h (2 Bft) N 1,00 h 0,203 mm 1,0 UV-I 307 W/m -2,4 C 4,2 C 13,9 km/h (3 Bft)
11.03.2015 16:00 5,9 C 56 % 1027,3 hPa 0,0 l/m 9,0 km/h (2 Bft) N 1,00 h 0,152 mm 0,6 UV-I 142 W/m -2,3 C 3,8 C 13,7 km/h (3 Bft)
11.03.2015 17:00 5,0 C 61 % 1027,5 hPa 0,0 l/m 5,3 km/h (1 Bft) N-NO 0,22 h 0,102 mm 0,0 UV-I 41 W/m -1,9 C 4,3 C 8,7 km/h (2 Bft)
11.03.2015 18:00 4,4 C 65 % 1027,9 hPa 0,0 l/m 0,2 km/h (0 Bft) N 0,00 h 0,051 mm 0,0 UV-I 6 W/m -1,7 C 4,4 C 0,9 km/h (0 Bft)
11.03.2015 19:00 3,8 C 70 % 1028,2 hPa 0,0 l/m 0,0 km/h (0 Bft) N 0,00 h 0,000 mm 0,0 UV-I 0 W/m -1,1 C 3,8 C 0,1 km/h (0 Bft)
11.03.2015 20:00 3,3 C 76 % 1028,5 hPa 0,0 l/m 4,2 km/h (1 Bft) N 0,00 h 0,025 mm 0,0 UV-I 0 W/m -0,5 C 2,3 C 6,5 km/h (2 Bft)
11.03.2015 21:00 3,1 C 84 % 1028,9 hPa 0,0 l/m 2,1 km/h (1 Bft) N-NW 0,00 h 0,025 mm 0,0 UV-I 0 W/m 0,6 C 3,1 C 4,3 km/h (1 Bft)
11.03.2015 22:00 2,8 C 87 % 1029,1 hPa 0,0 l/m 2,8 km/h (1 Bft) N-NW 0,00 h 0,000 mm 0,0 UV-I 0 W/m 0,9 C 2,8 C 5,1 km/h (1 Bft)
11.03.2015 23:00 2,7 C 89 % 1029,1 hPa 0,0 l/m 0,2 km/h (0 Bft) N 0,00 h 0,000 mm 0,0 UV-I 0 W/m 1,0 C 2,7 C 0,9 km/h (0 Bft)
12.03.2015 00:00 2,5 C 90 % 1029,2 hPa 0,2 l/m 0,6 km/h (0 Bft) N 0,00 h 0,000 mm 0,0 UV-I 0 W/m 1,0 C 2,5 C 1,1 km/h (1 Bft)
12.03.2015 01:00 2,3 C 91 % 1029,3 hPa 0,0 l/m 0,2 km/h (0 Bft) N 0,00 h 0,000 mm 0,0 UV-I 0 W/m 1,0 C 2,3 C 0,7 km/h (0 Bft)
12.03.2015 02:00 2,3 C 92 % 1029,2 hPa 0,0 l/m 0,1 km/h (0 Bft) N 0,00 h 0,000 mm 0,0 UV-I 0 W/m 1,1 C 2,3 C 0,3 km/h (0 Bft)
12.03.2015 03:00 2,2 C 93 % 1029,3 hPa 0,0 l/m 0,0 km/h (0 Bft) N 0,00 h 0,000 mm 0,0 UV-I 0 W/m 1,2 C 2,2 C 0,1 km/h (0 Bft)
12.03.2015 04:00 2,3 C 93 % 1029,3 hPa 0,0 l/m 0,1 km/h (0 Bft) N 0,00 h 0,000 mm 0,0 UV-I 0 W/m 1,3 C 2,3 C 0,6 km/h (0 Bft)
12.03.2015 05:00 2,3 C 93 % 1029,5 hPa 0,0 l/m 0,0 km/h (0 Bft) N 0,00 h 0,000 mm 0,0 UV-I 0 W/m 1,3 C 2,3 C 0,4 km/h (0 Bft)
12.03.2015 06:00 2,4 C 94 % 1029,8 hPa 0,0 l/m 0,2 km/h (0 Bft) N 0,00 h 0,000 mm 0,0 UV-I 5 W/m 1,5 C 2,4 C 1,0 km/h (0 Bft)
12.03.2015 07:00 2,7 C 94 % 1030,2 hPa 0,0 l/m 0,4 km/h (0 Bft) N 0,10 h 0,000 mm 0,0 UV-I 25 W/m 1,7 C 2,7 C 1,4 km/h (1 Bft)
12.03.2015 08:00 3,6 C 89 % 1030,4 hPa 0,0 l/m 3,4 km/h (1 Bft) N 1,00 h 0,000 mm 0,7 UV-I 176 W/m 2,0 C 3,5 C 6,2 km/h (2 Bft)
12.03.2015 09:00 4,6 C 83 % 1030,4 hPa 0,0 l/m 8,7 km/h (2 Bft) N 1,00 h 0,076 mm 0,8 UV-I 228 W/m 1,9 C 2,6 C 13,1 km/h (3 Bft)
12.03.2015 10:00 5,1 C 78 % 1030,3 hPa 0,0 l/m 5,6 km/h (2 Bft) N 1,00 h 0,102 mm 1,1 UV-I 241 W/m 1,6 C 4,6 C 9,2 km/h (2 Bft)
12.03.2015 11:00 5,4 C 71 % 1030,1 hPa 0,0 l/m 6,2 km/h (2 Bft) N 1,00 h 0,102 mm 1,4 UV-I 237 W/m 0,6 C 4,6 C 10,3 km/h (2 Bft)
12.03.2015 12:00 6,4 C 63 % 1029,6 hPa 0,0 l/m 8,8 km/h (2 Bft) N 1,00 h 0,127 mm 1,6 UV-I 289 W/m -0,2 C 4,3 C 13,9 km/h (3 Bft)
12.03.2015 13:00 5,7 C 67 % 1029,3 hPa 0,0 l/m 10,3 km/h (2 Bft) N 1,00 h 0,152 mm 1,2 UV-I 191 W/m 0,0 C 2,7 C 16,0 km/h (3 Bft)
12.03.2015 14:00 5,3 C 69 % 1029,4 hPa 0,0 l/m 11,9 km/h (2 Bft) N-NO 1,00 h 0,102 mm 0,9 UV-I 156 W/m 0,2 C 1,4 C 18,4 km/h (3 Bft)
12.03.2015 15:00 4,3 C 73 % 1029,2 hPa 0,0 l/m 12,8 km/h (3 Bft) N 1,00 h 0,102 mm 0,5 UV-I 116 W/m 0,0 C -0,3 C 19,0 km/h (3 Bft)
12.03.2015 16:00 4,1 C 74 % 1028,9 hPa 0,0 l/m 12,2 km/h (2 Bft) N 1,00 h 0,076 mm 0,6 UV-I 147 W/m -0,0 C -0,2 C 20,0 km/h (4 Bft)
12.03.2015 17:00 3,6 C 75 % 1029,0 hPa 0,0 l/m 9,7 km/h (2 Bft) N-NO 0,57 h 0,076 mm 0,0 UV-I 56 W/m -0,4 C 0,8 C 15,4 km/h (3 Bft)
12.03.2015 18:00 2,4 C 78 % 1029,0 hPa 0,0 l/m 7,0 km/h (2 Bft) N-NO 0,00 h 0,051 mm 0,0 UV-I 7 W/m -1,0 C 1,3 C 11,9 km/h (2 Bft)
12.03.2015 19:00 1,5 C 79 % 1029,1 hPa 0,0 l/m 6,8 km/h (2 Bft) N-NO 0,00 h 0,025 mm 0,0 UV-I 0 W/m -1,8 C 0,4 C 11,9 km/h (2 Bft)
12.03.2015 20:00 0,9 C 83 % 1028,9 hPa 0,0 l/m 2,1 km/h (1 Bft) N 0,00 h 0,025 mm 0,0 UV-I 0 W/m -1,7 C 0,9 C 4,8 km/h (1 Bft)
12.03.2015 21:00 0,1 C 84 % 1028,8 hPa 0,0 l/m 0,2 km/h (0 Bft) N 0,00 h 0,000 mm 0,0 UV-I 0 W/m -2,2 C 0,1 C 0,8 km/h (0 Bft)
12.03.2015 22:00 -0,3 C 87 % 1028,6 hPa 0,0 l/m 0,5 km/h (0 Bft) N 0,00 h 0,000 mm 0,0 UV-I 0 W/m -2,1 C -0,3 C 1,8 km/h (1 Bft)
12.03.2015 23:00 0,8 C 84 % 1028,1 hPa 0,0 l/m 2,5 km/h (1 Bft) O-NO 0,00 h 0,000 mm 0,0 UV-I 0 W/m -1,7 C 0,7 C 6,4 km/h (2 Bft)
13.03.2015 00:00 1,4 C 79 % 1027,6 hPa 0,0 l/m 2,5 km/h (1 Bft) O-NO 0,00 h 0,000 mm 0,0 UV-I 0 W/m -1,9 C 1,1 C 5,1 km/h (1 Bft)
13.03.2015 01:00 1,3 C 78 % 1027,2 hPa 0,0 l/m 0,2 km/h (0 Bft) N 0,00 h 0,025 mm 0,0 UV-I 0 W/m -2,1 C 1,3 C 0,9 km/h (0 Bft)
13.03.2015 02:00 1,2 C 77 % 1026,5 hPa 0,0 l/m 0,7 km/h (0 Bft) O-NO 0,00 h 0,000 mm 0,0 UV-I 0 W/m -2,4 C 1,2 C 2,2 km/h (1 Bft)
13.03.2015 03:00 1,0 C 79 % 1025,9 hPa 0,0 l/m 0,4 km/h (0 Bft) NO 0,00 h 0,000 mm 0,0 UV-I 0 W/m -2,2 C 1,0 C 1,7 km/h (1 Bft)
13.03.2015 04:00 0,8 C 82 % 1025,5 hPa 0,0 l/m 1,1 km/h (1 Bft) N-NO 0,00 h 0,000 mm 0,0 UV-I 0 W/m -1,9 C 0,8 C 3,0 km/h (1 Bft)
13.03.2015 05:00 0,7 C 83 % 1025,1 hPa 0,0 l/m 0,1 km/h (0 Bft) N 0,00 h 0,000 mm 0,0 UV-I 0 W/m -1,9 C 0,7 C 0,6 km/h (0 Bft)
13.03.2015 06:00 0,6 C 84 % 1024,9 hPa 0,0 l/m 0,7 km/h (0 Bft) N 0,00 h 0,000 mm 0,0 UV-I 5 W/m -1,8 C 0,6 C 1,7 km/h (1 Bft)
13.03.2015 07:00 0,7 C 86 % 1024,9 hPa 0,0 l/m 0,6 km/h (0 Bft) N 0,00 h 0,000 mm 0,0 UV-I 10 W/m -1,4 C 0,7 C 1,4 km/h (1 Bft)
13.03.2015 08:00 0,8 C 88 % 1025,1 hPa 0,0 l/m 1,1 km/h (1 Bft) N 0,20 h 0,000 mm 0,0 UV-I 37 W/m -0,8 C 0,8 C 2,3 km/h (1 Bft)
13.03.2015 09:00 1,4 C 89 % 1025,0 hPa 0,0 l/m 1,3 km/h (1 Bft) N 1,00 h 0,025 mm 0,5 UV-I 85 W/m -0,2 C 1,4 C 2,8 km/h (1 Bft)
13.03.2015 10:00 2,2 C 86 % 1024,8 hPa 0,0 l/m 0,8 km/h (0 Bft) N 1,00 h 0,025 mm 0,6 UV-I 102 W/m 0,0 C 2,2 C 2,0 km/h (1 Bft)
13.03.2015 11:00 3,0 C 76 % 1024,7 hPa 0,0 l/m 2,6 km/h (1 Bft) O 1,00 h 0,051 mm 0,8 UV-I 123 W/m -0,7 C 3,0 C 5,5 km/h (2 Bft)
13.03.2015 12:00 3,6 C 71 % 1024,4 hPa 0,0 l/m 3,0 km/h (1 Bft) O-NO 1,00 h 0,051 mm 1,0 UV-I 154 W/m -1,2 C 3,6 C 7,2 km/h (2 Bft)
13.03.2015 13:00 3,7 C 71 % 1024,0 hPa 0,0 l/m 2,6 km/h (1 Bft) O 1,00 h 0,076 mm 0,8 UV-I 123 W/m -1,1 C 3,6 C 6,2 km/h (2 Bft)
13.03.2015 14:00 3,6 C 72 % 1023,8 hPa 0,0 l/m 2,6 km/h (1 Bft) O-NO 1,00 h 0,051 mm 0,6 UV-I 101 W/m -1,0 C 3,6 C 6,5 km/h (2 Bft)
13.03.2015 15:00 4,3 C 69 % 1023,7 hPa 0,0 l/m 1,4 km/h (1 Bft) O-NO 1,00 h 0,051 mm 0,6 UV-I 102 W/m -0,9 C 4,3 C 4,0 km/h (1 Bft)
13.03.2015 16:00 4,2 C 69 % 1023,7 hPa 0,0 l/m 4,2 km/h (1 Bft) N-NO 0,23 h 0,051 mm 0,0 UV-I 37 W/m -0,9 C 4,0 C 7,6 km/h (2 Bft)
13.03.2015 17:00 3,6 C 75 % 1024,0 hPa 0,0 l/m 8,0 km/h (2 Bft) N-NO 0,00 h 0,025 mm 0,0 UV-I 17 W/m -0,4 C 2,0 C 12,8 km/h (3 Bft)
13.03.2015 18:00 2,9 C 80 % 1024,3 hPa 0,0 l/m 7,4 km/h (2 Bft) N-NO 0,00 h 0,025 mm 0,0 UV-I 0 W/m -0,1 C 1,7 C 12,1 km/h (2 Bft)
13.03.2015 19:00 2,5 C 83 % 1024,3 hPa 0,0 l/m 8,0 km/h (2 Bft) N-NO 0,00 h 0,025 mm 0,0 UV-I 0 W/m -0,1 C 0,8 C 12,9 km/h (3 Bft)
13.03.2015 20:00 2,1 C 83 % 1024,5 hPa 0,0 l/m 9,2 km/h (2 Bft) N-NO 0,00 h 0,025 mm 0,0 UV-I 0 W/m -0,5 C -0,5 C 14,5 km/h (3 Bft)
13.03.2015 21:00 1,8 C 83 % 1024,8 hPa 0,0 l/m 8,2 km/h (2 Bft) N-NO 0,00 h 0,025 mm 0,0 UV-I 0 W/m -0,7 C 0,1 C 13,8 km/h (3 Bft)
13.03.2015 22:00 1,6 C 85 % 1024,7 hPa 0,0 l/m 6,1 km/h (2 Bft) N 0,00 h 0,025 mm 0,0 UV-I 0 W/m -0,7 C 1,0 C 9,5 km/h (2 Bft)
13.03.2015 23:00 1,5 C 86 % 1024,6 hPa 0,0 l/m 4,8 km/h (1 Bft) N 0,00 h 0,000 mm 0,0 UV-I 0 W/m -0,6 C 1,2 C 8,3 km/h (2 Bft)
14.03.2015 00:00 1,2 C 87 % 1024,3 hPa 0,0 l/m 5,1 km/h (1 Bft) N 0,00 h 0,000 mm 0,0 UV-I 0 W/m -0,6 C 1,0 C 8,8 km/h (2 Bft)
14.03.2015 01:00 1,1 C 88 % 1024,1 hPa 0,0 l/m 4,6 km/h (1 Bft) N-NW 0,00 h 0,000 mm 0,0 UV-I 0 W/m -0,7 C 1,0 C 7,4 km/h (2 Bft)
14.03.2015 02:00 1,0 C 89 % 1024,0 hPa 0,0 l/m 3,8 km/h (1 Bft) N 0,00 h 0,000 mm 0,0 UV-I 0 W/m -0,6 C 0,9 C 6,6 km/h (2 Bft)
14.03.2015 03:00 0,9 C 89 % 1023,7 hPa 0,0 l/m 3,9 km/h (1 Bft) N 0,00 h 0,000 mm 0,0 UV-I 0 W/m -0,7 C 0,9 C 6,7 km/h (2 Bft)
14.03.2015 04:00 0,9 C 89 % 1023,8 hPa 0,0 l/m 3,4 km/h (1 Bft) N-NO 0,00 h 0,000 mm 0,0 UV-I 0 W/m -0,7 C 0,9 C 6,5 km/h (2 Bft)
14.03.2015 05:00 1,0 C 90 % 1023,8 hPa 0,0 l/m 2,7 km/h (1 Bft) N 0,00 h 0,000 mm 0,0 UV-I 0 W/m -0,4 C 1,0 C 5,2 km/h (1 Bft)
14.03.2015 06:00 1,1 C 90 % 1023,9 hPa 0,0 l/m 3,8 km/h (1 Bft) N-NO 0,00 h 0,000 mm 0,0 UV-I 0 W/m -0,4 C 1,0 C 7,0 km/h (2 Bft)
14.03.2015 07:00 1,2 C 91 % 1024,0 hPa 0,0 l/m 3,9 km/h (1 Bft) N 0,00 h 0,000 mm 0,0 UV-I 10 W/m -0,2 C 1,2 C 6,5 km/h (2 Bft)
14.03.2015 08:00 1,2 C 92 % 1024,1 hPa 0,0 l/m 4,0 km/h (1 Bft) N 0,00 h 0,000 mm 0,0 UV-I 29 W/m 0,0 C 1,2 C 7,2 km/h (2 Bft)
14.03.2015 09:00 1,7 C 92 % 1024,2 hPa 0,0 l/m 2,1 km/h (1 Bft) N 0,67 h 0,025 mm 0,0 UV-I 56 W/m 0,4 C 1,7 C 4,8 km/h (1 Bft)
14.03.2015 10:00 2,4 C 90 % 1024,2 hPa 0,0 l/m 1,3 km/h (1 Bft) N 1,00 h 0,025 mm 0,5 UV-I 69 W/m 0,9 C 2,4 C 2,9 km/h (1 Bft)
14.03.2015 11:00 2,9 C 88 % 1024,1 hPa 0,0 l/m 2,4 km/h (1 Bft) N 0,87 h 0,025 mm 0,5 UV-I 61 W/m 1,1 C 2,9 C 4,6 km/h (1 Bft)
14.03.2015 12:00 3,2 C 86 % 1024,1 hPa 0,0 l/m 2,9 km/h (1 Bft) N-NO 1,00 h 0,025 mm 0,6 UV-I 75 W/m 1,2 C 3,2 C 6,0 km/h (2 Bft)
14.03.2015 13:00 3,5 C 84 % 1024,0 hPa 0,0 l/m 2,7 km/h (1 Bft) O-NO 1,00 h 0,025 mm 0,7 UV-I 118 W/m 1,0 C 3,3 C 6,2 km/h (2 Bft)
14.03.2015 14:00 4,1 C 81 % 1024,1 hPa 0,0 l/m 3,8 km/h (1 Bft) N-NO 1,00 h 0,051 mm 0,7 UV-I 128 W/m 1,1 C 3,9 C 7,4 km/h (2 Bft)
14.03.2015 15:00 4,1 C 79 % 1024,4 hPa 0,0 l/m 3,8 km/h (1 Bft) NO 0,48 h 0,051 mm 0,5 UV-I 52 W/m 0,8 C 4,0 C 7,7 km/h (2 Bft)
14.03.2015 16:00 3,8 C 80 % 1024,8 hPa 0,0 l/m 3,2 km/h (1 Bft) O-NO 0,00 h 0,025 mm 0,0 UV-I 28 W/m 0,6 C 3,7 C 6,8 km/h (2 Bft)
14.03.2015 17:00 3,3 C 82 % 1025,1 hPa 0,0 l/m 1,2 km/h (1 Bft) O-NO 0,00 h 0,025 mm 0,0 UV-I 8 W/m 0,5 C 3,3 C 3,7 km/h (1 Bft)
14.03.2015 18:00 3,1 C 83 % 1025,7 hPa 0,0 l/m 0,5 km/h (0 Bft) O-NO 0,00 h 0,000 mm 0,0 UV-I 0 W/m 0,5 C 3,1 C 2,2 km/h (1 Bft)
14.03.2015 19:00 2,8 C 85 % 1026,0 hPa 0,0 l/m 0,1 km/h (0 Bft) N 0,00 h 0,000 mm 0,0 UV-I 0 W/m 0,5 C 2,8 C 0,7 km/h (0 Bft)
14.03.2015 20:00 2,6 C 87 % 1026,1 hPa 0,0 l/m 0,8 km/h (0 Bft) N 0,00 h 0,000 mm 0,0 UV-I 0 W/m 0,7 C 2,6 C 2,4 km/h (1 Bft)
14.03.2015 21:00 2,1 C 90 % 1026,1 hPa 0,2 l/m 1,2 km/h (1 Bft) N 0,00 h 0,002 mm 0,0 UV-I 0 W/m 0,7 C 2,1 C 3,0 km/h (1 Bft)
14.03.2015 22:00 1,7 C 92 % 1026,1 hPa 0,0 l/m 0,4 km/h (0 Bft) N 0,00 h 0,000 mm 0,0 UV-I 0 W/m 0,6 C 1,7 C 0,9 km/h (0 Bft)
14.03.2015 23:00 1,6 C 93 % 1026,1 hPa 0,2 l/m 0,3 km/h (0 Bft) N 0,00 h 0,000 mm 0,0 UV-I 0 W/m 0,6 C 1,6 C 1,6 km/h (1 Bft)
15.03.2015 00:00 1,5 C 94 % 1025,9 hPa 0,0 l/m 1,0 km/h (0 Bft) N 0,00 h 0,000 mm 0,0 UV-I 0 W/m 0,6 C 1,5 C 2,8 km/h (1 Bft)
15.03.2015 01:00 1,2 C 94 % 1025,7 hPa 0,0 l/m 0,6 km/h (0 Bft) N 0,00 h 0,000 mm 0,0 UV-I 0 W/m 0,4 C 1,2 C 2,2 km/h (1 Bft)
15.03.2015 02:00 1,2 C 95 % 1025,4 hPa 0,0 l/m 0,9 km/h (0 Bft) N-NO 0,00 h 0,000 mm 0,0 UV-I 0 W/m 0,4 C 1,2 C 2,9 km/h (1 Bft)
15.03.2015 03:00 1,1 C 95 % 1025,3 hPa 0,0 l/m 0,1 km/h (0 Bft) N-NO 0,00 h 0,000 mm 0,0 UV-I 0 W/m 0,4 C 1,1 C 1,3 km/h (1 Bft)
15.03.2015 04:00 1,1 C 95 % 1025,5 hPa 0,0 l/m 0,8 km/h (0 Bft) O-NO 0,00 h 0,000 mm 0,0 UV-I 0 W/m 0,4 C 1,1 C 3,1 km/h (1 Bft)
15.03.2015 05:00 1,0 C 95 % 1025,7 hPa 0,0 l/m 0,3 km/h (0 Bft) N 0,00 h 0,000 mm 0,0 UV-I 0 W/m 0,3 C 1,0 C 1,9 km/h (1 Bft)
15.03.2015 06:00 1,0 C 95 % 1025,9 hPa 0,0 l/m 2,7 km/h (1 Bft) O-NO 0,00 h 0,000 mm 0,0 UV-I 13 W/m 0,3 C 1,0 C 6,4 km/h (2 Bft)
15.03.2015 07:00 1,3 C 94 % 1026,2 hPa 0,0 l/m 1,7 km/h (1 Bft) O 0,42 h 0,000 mm 0,0 UV-I 45 W/m 0,5 C 1,3 C 4,3 km/h (1 Bft)
15.03.2015 08:00 1,7 C 93 % 1026,4 hPa 0,0 l/m 4,7 km/h (1 Bft) O-NO 0,90 h 0,025 mm 0,0 UV-I 60 W/m 0,8 C 1,4 C 9,4 km/h (2 Bft)
15.03.2015 09:00 1,9 C 93 % 1026,7 hPa 0,0 l/m 2,6 km/h (1 Bft) O 0,97 h 0,025 mm 0,5 UV-I 65 W/m 0,8 C 1,9 C 6,2 km/h (2 Bft)
15.03.2015 10:00 2,5 C 91 % 1026,5 hPa 0,0 l/m 5,0 km/h (1 Bft) O-NO 1,00 h 0,025 mm 0,7 UV-I 124 W/m 1,2 C 2,1 C 10,0 km/h (2 Bft)
15.03.2015 11:00 2,4 C 90 % 1026,6 hPa 0,0 l/m 6,1 km/h (2 Bft) O-SO 1,00 h 0,051 mm 0,5 UV-I 68 W/m 1,0 C 1,4 C 12,6 km/h (2 Bft)
15.03.2015 12:00 2,3 C 92 % 1026,4 hPa 0,2 l/m 5,9 km/h (2 Bft) O-SO 1,00 h 0,025 mm 0,5 UV-I 78 W/m 1,2 C 1,5 C 12,7 km/h (3 Bft)
15.03.2015 13:00 2,6 C 91 % 1026,2 hPa 0,0 l/m 7,3 km/h (2 Bft) O 1,00 h 0,025 mm 0,6 UV-I 109 W/m 1,3 C 1,0 C 14,9 km/h (3 Bft)
15.03.2015 14:00 3,5 C 89 % 1026,0 hPa 0,0 l/m 9,3 km/h (2 Bft) O 1,00 h 0,051 mm 0,9 UV-I 169 W/m 1,8 C 0,8 C 17,5 km/h (3 Bft)
15.03.2015 15:00 3,9 C 86 % 1026,1 hPa 0,0 l/m 6,6 km/h (2 Bft) O 1,00 h 0,076 mm 0,6 UV-I 115 W/m 1,8 C 2,9 C 13,1 km/h (3 Bft)
15.03.2015 16:00 4,7 C 86 % 1025,9 hPa 0,0 l/m 5,5 km/h (2 Bft) O-NO 1,00 h 0,051 mm 0,6 UV-I 141 W/m 2,6 C 4,0 C 10,8 km/h (2 Bft)
15.03.2015 17:00 4,5 C 88 % 1025,9 hPa 0,0 l/m 5,7 km/h (2 Bft) O 0,37 h 0,051 mm 0,0 UV-I 43 W/m 2,7 C 3,8 C 11,3 km/h (2 Bft)
15.03.2015 18:00 4,2 C 90 % 1026,1 hPa 0,0 l/m 8,2 km/h (2 Bft) O 0,00 h 0,025 mm 0,0 UV-I 7 W/m 2,8 C 2,1 C 15,0 km/h (3 Bft)
15.03.2015 19:00 4,3 C 89 % 1026,3 hPa 0,0 l/m 9,7 km/h (2 Bft) O-NO 0,00 h 0,000 mm 0,0 UV-I 0 W/m 2,7 C 1,6 C 17,4 km/h (3 Bft)
15.03.2015 20:00 4,2 C 85 % 1026,3 hPa 0,0 l/m 9,9 km/h (2 Bft) O-NO 0,00 h 0,025 mm 0,0 UV-I 0 W/m 1,9 C 1,3 C 18,6 km/h (3 Bft)
15.03.2015 21:00 3,6 C 86 % 1026,6 hPa 0,0 l/m 7,4 km/h (2 Bft) O 0,00 h 0,025 mm 0,0 UV-I 0 W/m 1,5 C 2,1 C 15,8 km/h (3 Bft)
15.03.2015 22:00 3,2 C 87 % 1026,9 hPa 0,0 l/m 5,0 km/h (1 Bft) O 0,00 h 0,000 mm 0,0 UV-I 0 W/m 1,3 C 2,5 C 11,8 km/h (2 Bft)
15.03.2015 23:00 3,4 C 88 % 1026,9 hPa 0,0 l/m 4,7 km/h (1 Bft) O-NO 0,00 h 0,000 mm 0,0 UV-I 0 W/m 1,6 C 2,9 C 10,6 km/h (2 Bft)
Min-Datum _ 10.03.15 09.03.15 13.03.15 - 09.03.15 - - - - - 10.03.15 11.03.15 09.03.15
_ Min-Zeit 06:29 14:52 16:18 - 00:00 - - - - - 06:30 08:57 00:07
Minimum _ -2,8 C 29 % 1023,6 hPa - 0,0 km/h (0 Bft) - - - - - -3,9 C -6,6 C 0,0 km/h (0 Bft)
Max-Datum _ 09.03.15 10.03.15 12.03.15 11.03.15 11.03.15 - 11.03.15 09.03.15 11.03.15 11.03.15 10.03.15 09.03.15 15.03.15
_ Max-Zeit 14:32 07:47 08:15 02:08 10:25 - 07:33 13:00 11:56 12:10 22:37 14:32 20:12
Maximum _ 15,7 C 95 % 1030,6 hPa 0,8 l/m 20,9 km/h
N (4 Bft)
- 0,05 h 0,330 mm 2,8 UV-I 846 W/m 6,0 C 15,7 C 30,6 km/h
O (5 Bft)
Durchschnitt _ 3,7 C 79 % 1026,3 hPa #1,8 l/m 3,6 km/h (1 Bft) N #61:13 h #8,121 mm 1,1 UV-I 170 W/m 0,1 C 3,1 C 6,7 km/h (2 Bft)